createdAt,value
2022-11-27T00:01:46.962Z,14.05
2022-11-27T00:04:15.372Z,15.45
2022-11-27T00:06:45.040Z,13.48
2022-11-27T00:09:16.039Z,16.73
2022-11-27T00:11:45.750Z,14.05
2022-11-27T00:14:14.716Z,21.50
2022-11-27T00:16:43.332Z,17.08
2022-11-27T00:19:12.042Z,18.73
2022-11-27T00:21:40.359Z,20.05
2022-11-27T00:24:09.481Z,19.27
2022-11-27T00:26:38.549Z,13.98
2022-11-27T00:29:08.920Z,12.77
2022-11-27T00:31:38.236Z,17.48
2022-11-27T00:34:07.897Z,17.17
2022-11-27T00:36:36.937Z,16.90
2022-11-27T00:39:05.626Z,17.83
2022-11-27T00:41:33.977Z,14.82
2022-11-27T00:44:02.529Z,21.30
2022-11-27T00:46:32.822Z,14.18
2022-11-27T00:49:02.031Z,14.07
2022-11-27T00:51:31.040Z,15.45
2022-11-27T00:53:59.956Z,14.40
2022-11-27T00:56:29.279Z,13.23
2022-11-27T00:58:57.919Z,15.57
2022-11-27T01:01:27.198Z,13.98
2022-11-27T01:03:57.863Z,15.23
2022-11-27T01:06:26.342Z,12.40
2022-11-27T01:08:54.972Z,14.35
2022-11-27T01:11:25.531Z,16.52
2022-11-27T01:17:23.599Z,15.77
2022-11-27T01:19:53.265Z,13.50
2022-11-27T01:22:21.607Z,15.95
2022-11-27T01:24:49.900Z,12.10
2022-11-27T01:27:18.194Z,15.40
2022-11-27T01:29:46.996Z,13.75
2022-11-27T01:32:15.301Z,12.20
2022-11-27T01:34:43.752Z,12.32
2022-11-27T01:37:13.372Z,12.65
2022-11-27T01:39:41.849Z,16.65
2022-11-27T01:42:11.550Z,15.85
2022-11-27T01:44:54.138Z,13.40
2022-11-27T01:47:29.537Z,17.60
2022-11-27T01:50:00.016Z,16.95
2022-11-27T01:52:31.489Z,13.48
2022-11-27T01:55:01.023Z,16.55
2022-11-27T01:57:32.295Z,14.13
2022-11-27T02:00:01.664Z,14.77
2022-11-27T02:02:30.275Z,15.52
2022-11-27T02:04:59.730Z,14.90
2022-11-27T02:07:29.431Z,20.48
2022-11-27T02:09:57.817Z,14.15
2022-11-27T02:12:26.986Z,17.42
2022-11-27T02:14:59.134Z,13.30
2022-11-27T02:17:32.141Z,13.52
2022-11-27T02:20:08.194Z,17.67
2022-11-27T02:22:48.744Z,15.85
2022-11-27T02:25:28.009Z,14.35
2022-11-27T02:28:08.319Z,14.85
2022-11-27T02:30:40.654Z,14.68
2022-11-27T02:33:11.326Z,15.77
2022-11-27T02:35:43.037Z,16.63
2022-11-27T02:38:13.998Z,14.98
2022-11-27T02:40:46.214Z,17.48
2022-11-27T02:43:19.163Z,19.27
2022-11-27T02:45:50.301Z,17.73
2022-11-27T02:48:20.510Z,16.50
2022-11-27T02:50:50.751Z,16.25
2022-11-27T02:53:20.895Z,15.02
2022-11-27T02:55:50.370Z,11.50
2022-11-27T02:58:21.728Z,10.82
2022-11-27T03:00:51.986Z,11.10
2022-11-27T03:03:22.593Z,17.30
2022-11-27T03:05:52.251Z,17.33
2022-11-27T03:08:23.861Z,16.08
2022-11-27T03:10:53.737Z,17.33
2022-11-27T03:13:22.259Z,17.20
2022-11-27T03:15:57.898Z,18.80
2022-11-27T03:18:32.700Z,17.70
2022-11-27T03:21:05.952Z,15.25
2022-11-27T03:23:34.305Z,15.18
2022-11-27T03:26:02.599Z,16.08
2022-11-27T03:28:31.135Z,12.75
2022-11-27T03:31:01.245Z,16.40
2022-11-27T03:33:29.641Z,21.83
2022-11-27T03:35:58.087Z,16.27
2022-11-27T03:38:26.386Z,16.02
2022-11-27T03:40:56.989Z,17.08
2022-11-27T03:43:25.887Z,22.02
2022-11-27T03:45:58.483Z,19.60
2022-11-27T03:48:33.894Z,19.58
2022-11-27T03:51:05.718Z,20.48
2022-11-27T03:53:38.571Z,16.95
2022-11-27T03:56:10.365Z,23.15
2022-11-27T03:58:40.638Z,17.42
2022-11-27T04:01:10.446Z,20.33
2022-11-27T04:03:40.569Z,18.98
2022-11-27T04:06:08.962Z,20.63
2022-11-27T04:08:37.245Z,16.60
2022-11-27T04:11:05.618Z,21.80
2022-11-27T04:13:33.931Z,23.50
2022-11-27T04:16:02.745Z,18.30
2022-11-27T04:18:31.486Z,21.85
2022-11-27T04:21:01.122Z,21.23
2022-11-27T04:23:29.698Z,19.90
2022-11-27T04:25:58.009Z,20.73
2022-11-27T04:28:26.309Z,22.92
2022-11-27T04:30:54.961Z,19.77
2022-11-27T04:33:23.316Z,17.83
2022-11-27T04:35:51.668Z,16.77
2022-11-27T04:38:21.675Z,20.38
2022-11-27T04:40:50.033Z,22.23
2022-11-27T04:43:18.308Z,18.85
2022-11-27T04:45:46.692Z,21.85
2022-11-27T04:48:15.018Z,21.52
2022-11-27T04:50:43.379Z,25.70
2022-11-27T04:53:11.680Z,24.08
2022-11-27T04:55:41.332Z,22.17
2022-11-27T04:58:09.692Z,22.40
2022-11-27T05:00:38.107Z,24.88
2022-11-27T05:03:06.511Z,20.40
2022-11-27T05:05:34.924Z,18.83
2022-11-27T05:08:03.379Z,20.98
2022-11-27T05:10:32.172Z,19.55
2022-11-27T05:13:01.791Z,20.40
2022-11-27T05:15:30.162Z,21.80
2022-11-27T05:17:58.514Z,20.83
2022-11-27T05:20:27.041Z,20.58
2022-11-27T05:22:55.360Z,21.00
2022-11-27T05:25:23.645Z,20.75
2022-11-27T05:27:52.187Z,19.73
2022-11-27T05:30:21.981Z,18.45
2022-11-27T05:32:50.254Z,18.35
2022-11-27T05:35:18.635Z,16.88
2022-11-27T05:37:46.962Z,16.90
2022-11-27T05:40:15.562Z,26.77
2022-11-27T05:42:43.882Z,19.38
2022-11-27T05:45:12.457Z,21.08
2022-11-27T05:47:42.089Z,21.55
2022-11-27T05:50:10.718Z,25.33
2022-11-27T05:52:39.065Z,19.95
2022-11-27T05:55:07.907Z,21.75
2022-11-27T05:57:36.241Z,20.17
2022-11-27T06:00:05.876Z,19.73
2022-11-27T06:02:34.298Z,19.88
2022-11-27T06:05:04.141Z,21.13
2022-11-27T06:07:32.799Z,22.20
2022-11-27T06:10:01.109Z,21.98
2022-11-27T06:12:29.660Z,22.70
2022-11-27T06:14:57.970Z,20.38
2022-11-27T06:17:26.258Z,21.90
2022-11-27T06:19:54.640Z,20.40
2022-11-27T06:22:24.309Z,21.08
2022-11-27T06:24:53.125Z,21.63
2022-11-27T06:27:21.501Z,23.60
2022-11-27T06:29:49.850Z,17.77
2022-11-27T06:32:18.138Z,22.23
2022-11-27T06:34:46.437Z,21.85
2022-11-27T06:37:14.767Z,24.25
2022-11-27T06:39:44.429Z,19.95
2022-11-27T06:42:12.817Z,21.45
2022-11-27T06:44:41.451Z,24.95
2022-11-27T06:47:09.914Z,21.77
2022-11-27T06:49:38.300Z,21.02
2022-11-27T06:52:06.685Z,27.65
2022-11-27T06:54:34.994Z,22.88
2022-11-27T06:57:04.613Z,20.85
2022-11-27T06:59:33.007Z,19.73
2022-11-27T07:02:01.355Z,21.95
2022-11-27T07:04:29.658Z,23.45
2022-11-27T07:06:58.713Z,24.88
2022-11-27T07:09:27.054Z,21.20
2022-11-27T07:11:55.372Z,21.02
2022-11-27T07:14:25.003Z,18.20
2022-11-27T07:16:53.410Z,23.40
2022-11-27T07:19:21.719Z,20.98
2022-11-27T07:21:50.023Z,19.35
2022-11-27T07:24:18.344Z,19.33
2022-11-27T07:26:46.958Z,18.58
2022-11-27T07:29:15.667Z,19.83
2022-11-27T07:31:45.435Z,16.80
2022-11-27T07:34:18.414Z,17.58
2022-11-27T07:36:49.677Z,19.55
2022-11-27T07:39:33.831Z,19.20
2022-11-27T07:42:36.394Z,20.15
2022-11-27T07:44:56.622Z,24.30
2022-11-27T07:47:26.307Z,32.03
2022-11-27T07:49:58.348Z,49.65
2022-11-27T07:52:26.654Z,24.30
2022-11-27T07:54:55.221Z,22.17
2022-11-27T07:57:23.627Z,19.73
2022-11-27T07:59:51.933Z,18.95
2022-11-27T08:02:20.315Z,20.42
2022-11-27T08:04:49.969Z,24.30
2022-11-27T08:07:18.403Z,28.98
2022-11-27T08:09:46.720Z,20.23
2022-11-27T08:12:15.038Z,19.73
2022-11-27T08:14:43.449Z,21.70
2022-11-27T08:17:14.047Z,19.35
2022-11-27T08:19:42.440Z,18.48
2022-11-27T08:22:13.783Z,18.45
2022-11-27T08:24:43.160Z,22.15
2022-11-27T08:27:11.835Z,19.35
2022-11-27T08:29:40.245Z,18.10
2022-11-27T08:32:08.619Z,17.33
2022-11-27T08:34:37.002Z,18.45
2022-11-27T08:37:05.520Z,18.77
2022-11-27T08:39:35.395Z,20.85
2022-11-27T08:42:03.729Z,17.98
2022-11-27T08:44:32.245Z,15.10
2022-11-27T08:47:00.574Z,29.98
2022-11-27T08:49:29.089Z,25.58
2022-11-27T08:51:57.411Z,27.77
2022-11-27T08:54:25.722Z,24.67
2022-11-27T08:56:55.394Z,15.65
2022-11-27T08:59:23.770Z,17.02
2022-11-27T09:01:52.113Z,15.80
2022-11-27T09:04:20.690Z,16.60
2022-11-27T09:06:51.966Z,17.27
2022-11-27T09:09:23.717Z,18.33
2022-11-27T09:11:52.015Z,18.38
2022-11-27T09:14:21.658Z,21.95
2022-11-27T09:16:50.098Z,18.55
2022-11-27T09:23:30.543Z,14.05
2022-11-27T09:26:00.313Z,18.70
2022-11-27T09:28:31.533Z,14.73
2022-11-27T09:31:02.321Z,11.90
2022-11-27T09:33:31.421Z,11.85
2022-11-27T09:35:59.987Z,20.52
2022-11-27T09:38:28.270Z,15.18
2022-11-27T09:41:03.092Z,15.18
2022-11-27T09:43:33.483Z,12.90
2022-11-27T09:46:08.229Z,13.57
2022-11-27T09:48:39.657Z,13.05
2022-11-27T09:51:10.951Z,11.00
2022-11-27T09:53:44.119Z,11.57
2022-11-27T09:56:14.437Z,12.70
2022-11-27T09:58:43.671Z,14.15
2022-11-27T10:01:14.260Z,12.63
2022-11-27T10:03:43.197Z,12.75
2022-11-27T10:06:21.049Z,16.25
2022-11-27T10:08:52.996Z,12.77
2022-11-27T10:11:25.376Z,12.90
2022-11-27T10:14:02.946Z,12.70
2022-11-27T10:16:44.138Z,11.40
2022-11-27T10:19:27.253Z,10.23
2022-11-27T10:21:58.514Z,11.38
2022-11-27T10:24:36.442Z,11.15
2022-11-27T10:27:07.538Z,11.55
2022-11-27T10:29:38.200Z,9.20
2022-11-27T10:32:32.950Z,9.80
2022-11-27T10:35:03.913Z,7.78
2022-11-27T10:37:35.268Z,14.75
2022-11-27T10:40:07.386Z,8.10
2022-11-27T10:42:37.986Z,10.23
2022-11-27T10:45:07.509Z,12.27
2022-11-27T10:47:38.354Z,9.77
2022-11-27T10:50:11.716Z,12.55
2022-11-27T10:52:49.533Z,10.15
2022-11-27T10:55:24.322Z,11.85
2022-11-27T10:57:59.259Z,9.05
2022-11-27T11:00:27.920Z,7.93
2022-11-27T11:03:04.411Z,11.38
2022-11-27T11:06:12.160Z,10.77
2022-11-27T11:08:27.575Z,9.52
2022-11-27T11:10:59.924Z,12.45
2022-11-27T11:13:29.208Z,10.93
2022-11-27T11:15:59.033Z,10.80
2022-11-27T11:18:29.638Z,9.75
2022-11-27T11:20:59.006Z,11.32
2022-11-27T11:23:32.228Z,11.40
2022-11-27T11:26:05.369Z,9.50
2022-11-27T11:28:39.558Z,8.25
2022-11-27T11:31:10.594Z,10.55
2022-11-27T11:33:42.979Z,11.35
2022-11-27T11:36:13.194Z,9.85
2022-11-27T11:39:00.174Z,9.45
2022-11-27T11:41:52.615Z,8.93
2022-11-27T11:44:30.394Z,11.13
2022-11-27T11:47:06.611Z,11.57
2022-11-27T11:49:54.291Z,10.27
2022-11-27T11:52:35.619Z,12.13
2022-11-27T11:55:10.821Z,10.27
2022-11-27T11:57:53.486Z,12.70
2022-11-27T12:00:28.204Z,8.23
2022-11-27T12:03:15.812Z,9.05
2022-11-27T12:05:55.809Z,12.15
2022-11-27T12:08:39.743Z,9.63
2022-11-27T12:11:11.852Z,7.78
2022-11-27T12:14:01.045Z,7.55
2022-11-27T12:16:39.564Z,8.38
2022-11-27T12:19:22.724Z,7.75
2022-11-27T12:22:02.178Z,7.35
2022-11-27T12:24:39.638Z,8.18
2022-11-27T12:27:15.125Z,8.50
2022-11-27T12:29:54.879Z,11.55
2022-11-27T12:32:30.150Z,7.63
2022-11-27T12:35:11.916Z,7.63
2022-11-27T12:37:47.538Z,7.88
2022-11-27T12:40:23.729Z,6.28
2022-11-27T12:42:55.362Z,8.32
2022-11-27T12:45:27.103Z,7.85
2022-11-27T12:47:58.205Z,7.20
2022-11-27T12:50:35.867Z,8.30
2022-11-27T12:53:11.667Z,7.47
2022-11-27T12:55:42.293Z,8.63
2022-11-27T12:58:15.587Z,8.52
2022-11-27T13:00:44.998Z,10.88
2022-11-27T13:03:15.955Z,9.73
2022-11-27T13:05:48.271Z,6.10
2022-11-27T13:08:22.778Z,6.68
2022-11-27T13:10:53.789Z,8.77
2022-11-27T13:13:25.008Z,8.38
2022-11-27T13:15:55.623Z,10.05
2022-11-27T13:18:28.301Z,10.15
2022-11-27T13:21:00.718Z,7.72
2022-11-27T13:23:33.658Z,7.72
2022-11-27T13:26:03.712Z,7.43
2022-11-27T13:28:36.344Z,8.25
2022-11-27T13:31:05.741Z,8.75
2022-11-27T13:33:37.112Z,7.30
2022-11-27T13:36:07.112Z,7.50
2022-11-27T13:38:45.126Z,8.02
2022-11-27T13:41:22.077Z,8.15
2022-11-27T13:43:52.121Z,6.75
2022-11-27T13:46:22.796Z,7.40
2022-11-27T13:48:53.037Z,6.95
2022-11-27T13:51:26.567Z,6.80
2022-11-27T13:54:09.053Z,8.07
2022-11-27T13:56:37.807Z,10.32
2022-11-27T13:59:19.371Z,7.50
2022-11-27T14:01:58.041Z,7.38
2022-11-27T14:04:31.122Z,8.77
2022-11-27T14:07:06.364Z,9.68
2022-11-27T14:09:42.204Z,10.93
2022-11-27T14:12:18.863Z,7.57
2022-11-27T14:14:58.646Z,7.90
2022-11-27T14:17:28.479Z,8.38
2022-11-27T14:20:01.277Z,8.43
2022-11-27T14:22:48.492Z,8.02
2022-11-27T14:25:26.655Z,6.85
2022-11-27T14:28:00.114Z,8.00
2022-11-27T14:30:32.606Z,8.77
2022-11-27T14:33:01.794Z,7.30
2022-11-27T14:35:30.403Z,8.02
2022-11-27T14:38:10.198Z,6.57
2022-11-27T14:40:40.499Z,6.15
2022-11-27T14:43:10.426Z,8.07
2022-11-27T14:45:39.523Z,9.65
2022-11-27T14:48:08.345Z,9.18
2022-11-27T14:50:36.807Z,10.15
2022-11-27T14:53:05.367Z,8.38
2022-11-27T14:55:34.870Z,7.28
2022-11-27T14:58:05.103Z,6.55
2022-11-27T15:00:34.006Z,8.90
2022-11-27T15:03:18.123Z,9.60
2022-11-27T15:05:54.674Z,9.18
2022-11-27T15:08:24.513Z,12.00
2022-11-27T15:10:57.770Z,13.00
2022-11-27T15:13:30.843Z,11.05
2022-11-27T15:16:01.338Z,14.68
2022-11-27T15:18:30.161Z,10.20
2022-11-27T15:21:00.687Z,7.88
2022-11-27T15:23:30.147Z,8.68
2022-11-27T15:26:16.073Z,8.88
2022-11-27T15:28:53.613Z,9.07
2022-11-27T15:31:26.909Z,9.25
2022-11-27T15:34:00.021Z,10.10
2022-11-27T15:36:28.881Z,9.60
2022-11-27T15:39:06.181Z,9.60
2022-11-27T15:41:37.362Z,9.52
2022-11-27T15:44:11.227Z,10.45
2022-11-27T15:46:39.846Z,8.68
2022-11-27T15:49:10.372Z,10.15
2022-11-27T15:51:38.691Z,9.73
2022-11-27T15:54:07.031Z,10.18
2022-11-27T15:56:35.362Z,10.35
2022-11-27T15:59:03.732Z,10.00
2022-11-27T16:01:34.153Z,12.65
2022-11-27T16:04:02.771Z,11.35
2022-11-27T16:06:31.086Z,14.95
2022-11-27T16:08:59.773Z,10.90
2022-11-27T16:11:29.294Z,15.45
2022-11-27T16:13:57.646Z,12.00
2022-11-27T16:16:26.359Z,14.98
2022-11-27T16:18:59.723Z,12.07
2022-11-27T16:21:29.871Z,10.10
2022-11-27T16:23:59.375Z,11.00
2022-11-27T16:26:27.837Z,12.70
2022-11-27T16:28:56.512Z,11.40
2022-11-27T16:31:25.365Z,13.02
2022-11-27T16:33:53.714Z,11.27
2022-11-27T16:36:26.433Z,12.48
2022-11-27T16:38:55.193Z,14.85
2022-11-27T16:41:25.894Z,13.18
2022-11-27T16:43:56.993Z,12.15
2022-11-27T16:46:27.777Z,13.07
2022-11-27T16:48:56.978Z,15.27
2022-11-27T16:51:28.333Z,17.98
2022-11-27T16:53:57.673Z,15.85
2022-11-27T16:56:26.809Z,12.65
2022-11-27T16:59:00.983Z,14.00
2022-11-27T17:01:34.404Z,14.57
2022-11-27T17:04:04.646Z,25.20
2022-11-27T17:06:36.268Z,12.30
2022-11-27T17:09:06.053Z,13.68
2022-11-27T17:11:35.967Z,11.73
2022-11-27T17:14:06.308Z,15.10
2022-11-27T17:16:36.456Z,13.70
2022-11-27T17:19:05.561Z,13.57
2022-11-27T17:21:36.188Z,16.48
2022-11-27T17:24:11.618Z,13.55
2022-11-27T17:26:44.782Z,17.83
2022-11-27T17:29:14.009Z,14.30
2022-11-27T17:31:42.776Z,12.63
2022-11-27T17:34:12.587Z,13.18
2022-11-27T17:36:44.175Z,14.75
2022-11-27T17:39:13.226Z,14.43
2022-11-27T17:41:42.279Z,14.73
2022-11-27T17:44:11.127Z,15.38
2022-11-27T17:46:39.967Z,20.30
2022-11-27T17:49:09.427Z,18.38
2022-11-27T17:51:38.236Z,13.18
2022-11-27T17:54:07.884Z,14.30
2022-11-27T17:56:36.569Z,15.73
2022-11-27T17:59:05.893Z,15.73
2022-11-27T18:01:39.664Z,14.70
2022-11-27T18:04:10.944Z,17.60
2022-11-27T18:06:41.153Z,16.92
2022-11-27T18:09:12.342Z,13.50
2022-11-27T18:11:41.175Z,13.30
2022-11-27T18:14:13.726Z,14.30
2022-11-27T18:16:42.550Z,19.48
2022-11-27T18:19:11.693Z,17.73
2022-11-27T18:21:40.078Z,12.07
2022-11-27T18:24:23.952Z,14.38
2022-11-27T18:27:10.108Z,17.50
2022-11-27T18:29:39.704Z,20.23
2022-11-27T18:32:08.444Z,15.13
2022-11-27T18:34:36.852Z,14.20
2022-11-27T18:37:05.470Z,45.38
2022-11-27T18:39:34.121Z,67.78
2022-11-27T18:42:04.850Z,15.35
2022-11-27T18:44:34.228Z,13.63
2022-11-27T18:47:06.650Z,17.52
2022-11-27T18:49:35.121Z,18.42
2022-11-27T18:52:03.618Z,17.05
2022-11-27T18:54:32.142Z,19.77
2022-11-27T18:57:00.509Z,27.13
2022-11-27T18:59:30.498Z,18.00
2022-11-27T19:01:58.987Z,19.83
2022-11-27T19:04:27.343Z,52.58
2022-11-27T19:06:55.691Z,55.40
2022-11-27T19:09:24.026Z,55.55
2022-11-27T19:11:52.544Z,48.05
2022-11-27T19:14:21.511Z,22.25
2022-11-27T19:16:52.044Z,28.80
2022-11-27T19:22:11.008Z,25.30
2022-11-27T19:24:41.451Z,24.63
2022-11-27T19:27:10.405Z,16.88
2022-11-27T19:29:39.120Z,17.35
2022-11-27T19:32:09.046Z,16.90
2022-11-27T19:34:37.536Z,14.63
2022-11-27T19:37:05.816Z,23.60
2022-11-27T19:39:35.140Z,18.35
2022-11-27T19:42:03.475Z,14.27
2022-11-27T19:44:31.903Z,19.98
2022-11-27T19:47:00.418Z,15.73
2022-11-27T19:49:30.969Z,13.88
2022-11-27T19:51:59.781Z,16.70
2022-11-27T19:54:29.271Z,15.70
2022-11-27T19:56:58.470Z,18.70
2022-11-27T19:59:27.326Z,16.75
2022-11-27T20:01:56.914Z,15.82
2022-11-27T20:04:31.125Z,14.18
2022-11-27T20:06:59.435Z,14.82
2022-11-27T20:09:27.892Z,13.68
2022-11-27T20:11:57.222Z,14.90
2022-11-27T20:14:25.794Z,14.30
2022-11-27T20:16:55.966Z,15.20
2022-11-27T20:19:24.397Z,14.07
2022-11-27T20:21:54.077Z,14.23
2022-11-27T20:24:22.808Z,14.65
2022-11-27T20:26:51.113Z,14.43
2022-11-27T20:29:20.085Z,13.23
2022-11-27T20:40:10.539Z,13.75
2022-11-27T20:42:38.969Z,13.88
2022-11-27T20:45:08.650Z,14.75
2022-11-27T20:47:37.064Z,13.93
2022-11-27T20:50:05.780Z,14.88
2022-11-27T20:52:35.127Z,12.43
2022-11-27T20:55:03.574Z,13.23
2022-11-27T20:57:33.238Z,14.65
2022-11-27T21:00:01.602Z,12.00
2022-11-27T21:02:41.260Z,14.98
2022-11-27T21:05:11.644Z,13.57
2022-11-27T21:07:50.724Z,12.80
2022-11-27T21:10:25.191Z,14.38
2022-11-27T21:13:04.068Z,14.85
2022-11-27T21:15:34.790Z,12.85
2022-11-27T21:18:03.155Z,12.95
2022-11-27T21:20:32.079Z,13.43
2022-11-27T21:23:00.679Z,14.20
2022-11-27T21:25:29.028Z,14.32
2022-11-27T21:27:59.409Z,14.80
2022-11-27T21:30:29.407Z,13.40
2022-11-27T21:32:57.803Z,15.70
2022-11-27T21:35:31.259Z,12.50
2022-11-27T21:38:01.580Z,13.95
2022-11-27T21:40:30.660Z,13.75
2022-11-27T21:43:00.507Z,17.77
2022-11-27T21:45:29.100Z,14.38
2022-11-27T21:47:57.513Z,13.63
2022-11-27T21:50:25.855Z,14.65
2022-11-27T21:52:54.889Z,14.23
2022-11-27T21:55:23.492Z,15.50
2022-11-27T21:57:51.886Z,15.90
2022-11-27T22:00:26.627Z,13.73
2022-11-27T22:02:57.765Z,13.95
2022-11-27T22:05:28.109Z,15.68
2022-11-27T22:07:56.875Z,14.52
2022-11-27T22:10:25.305Z,15.00
2022-11-27T22:12:53.807Z,14.85
2022-11-27T22:15:23.799Z,14.25
2022-11-27T22:17:52.117Z,14.27
2022-11-27T22:20:20.470Z,12.98
2022-11-27T22:22:48.756Z,15.82
2022-11-27T22:25:17.888Z,14.15
2022-11-27T22:27:46.226Z,13.82
2022-11-27T22:30:14.782Z,18.45
2022-11-27T22:32:45.665Z,14.85
2022-11-27T22:35:14.054Z,15.02
2022-11-27T22:37:42.404Z,14.52
2022-11-27T22:40:11.077Z,15.18
2022-11-27T22:42:39.421Z,13.55
2022-11-27T22:45:08.571Z,14.88
2022-11-27T22:47:36.893Z,13.63
2022-11-27T22:50:07.682Z,14.48
2022-11-27T22:52:36.202Z,14.23
2022-11-27T22:55:04.970Z,14.07
2022-11-27T22:57:35.469Z,15.40
2022-11-27T23:00:03.845Z,14.02
2022-11-27T23:02:32.528Z,11.73
2022-11-27T23:05:00.904Z,11.65
2022-11-27T23:07:32.452Z,14.60
2022-11-27T23:10:01.244Z,13.73
2022-11-27T23:12:29.551Z,13.85
2022-11-27T23:14:57.906Z,12.93
2022-11-27T23:17:26.273Z,15.15
2022-11-27T23:19:54.860Z,13.35
2022-11-27T23:22:23.138Z,12.32
2022-11-27T23:24:53.105Z,12.85
2022-11-27T23:27:21.466Z,14.43
2022-11-27T23:29:49.870Z,13.68
2022-11-27T23:32:18.216Z,15.82
2022-11-27T23:34:46.524Z,14.60
2022-11-27T23:37:14.798Z,12.45
2022-11-27T23:39:43.119Z,13.48
2022-11-27T23:42:12.995Z,14.75
2022-11-27T23:44:42.146Z,13.45
2022-11-27T23:47:11.083Z,11.45
2022-11-27T23:49:39.380Z,13.02
2022-11-27T23:52:07.722Z,14.70
2022-11-27T23:54:36.033Z,14.25
2022-11-27T23:57:04.630Z,12.60
2022-11-27T23:59:34.265Z,14.88
